Terminal Aerodrome Forecast
Issued by NWS

Home | Current Version | Previous Version | Text Only | Print | Product List | Glossary Off
Versions: 1 2 3 4 5 6 7 8 9 10 11 12 13 14 15 16 17

000
FTUS43 KGRB 180500
TAFCWA
TAF
KCWA 180525Z 1806/1906 07006KT P6SM SCT012 SCT050
      TEMPO 1807/1811 BKN012
     FM181600 11006KT P6SM BKN025
     FM181800 12005KT P6SM SCT030 BKN050
     FM182300 14003KT P6SM SCT050 SCT090
      AMD LTD TO CLD VIS AND WIND TIL 181200=

USA.gov is the U.S. government's official web portal to all federal, state and local government web resources and services.